Time;durP1;ratioP1;P1;durP2;ratioP2;P2;SDS_P1;SDS_P2;PMS_P1;PMS_P2;Temp;Humidity;BMP_temperature;BMP_pressure;BME280_temperature;BME280_humidity;BME280_pressure;Samples;Min_cycle;Max_cycle;Signal;HPM_P1;HPM_P2
2022/09/16 00:02:09;;;;;;;9.70;5.82;;;;;;;;;;5020356;28;20060;-73
2022/09/16 00:04:36;;;;;;;9.55;6.43;;;;;;;;;;5023550;28;20041;-76
2022/09/16 00:07:03;;;;;;;8.52;5.63;;;;;;;;;;5023172;28;20057;-73
2022/09/16 00:09:31;;;;;;;8.45;5.75;;;;;;;;;;5040598;28;20045;-74
2022/09/16 00:11:58;;;;;;;14.38;7.45;;;;;;;;;;5023951;28;20520;-75
2022/09/16 00:14:25;;;;;;;10.38;7.10;;;;;;;;;;5021283;28;20072;-77
2022/09/16 00:16:52;;;;;;;7.70;6.78;;;;;;;;;;5019653;28;20440;-73
2022/09/16 00:19:20;;;;;;;10.07;6.60;;;;;;;;;;5019591;28;20038;-76
2022/09/16 00:21:48;;;;;;;8.77;6.25;;;;;;;;;;5025603;28;20107;-75
2022/09/16 00:24:16;;;;;;;5.88;5.10;;;;;;;;;;5033404;28;20056;-75
2022/09/16 00:26:43;;;;;;;14.75;7.93;;;;;;;;;;5025247;28;20576;-74
2022/09/16 00:29:10;;;;;;;10.50;8.30;;;;;;;;;;5036508;28;20047;-76
2022/09/16 00:31:38;;;;;;;6.07;5.45;;;;;;;;;;5026486;28;20049;-76
2022/09/16 00:34:05;;;;;;;5.40;4.97;;;;;;;;;;5028200;28;20065;-74
2022/09/16 00:36:32;;;;;;;9.60;6.53;;;;;;;;;;5032177;28;20116;-76
2022/09/16 00:39:00;;;;;;;6.35;5.40;;;;;;;;;;5026253;28;20065;-74
2022/09/16 00:41:31;;;;;;;6.75;5.50;;;;;;;;;;5044197;28;20037;-75
2022/09/16 00:44:00;;;;;;;6.18;5.57;;;;;;;;;;5025207;28;20316;-72
2022/09/16 00:46:33;;;;;;;8.20;5.40;;;;;;;;;;5028218;28;20041;-76
2022/09/16 00:49:03;;;;;;;7.80;6.68;;;;;;;;;;5027973;28;20501;-76
2022/09/16 00:51:30;;;;;;;7.15;6.45;;;;;;;;;;5030492;28;20037;-73
2022/09/16 00:54:01;;;;;;;10.10;7.55;;;;;;;;;;5038602;28;20038;-76
2022/09/16 00:56:30;;;;;;;9.05;7.38;;;;;;;;;;5027613;28;20576;-76
2022/09/16 00:59:03;;;;;;;8.45;6.30;;;;;;;;;;5026637;28;20049;-76
2022/09/16 01:01:31;;;;;;;6.72;5.95;;;;;;;;;;5026785;28;20037;-75
2022/09/16 01:04:01;;;;;;;9.95;6.80;;;;;;;;;;5027840;28;20039;-76
2022/09/16 01:06:28;;;;;;;7.90;7.18;;;;;;;;;;5027158;28;20034;-76
2022/09/16 01:08:56;;;;;;;8.68;6.18;;;;;;;;;;5025938;28;20038;-76
2022/09/16 01:11:24;;;;;;;8.70;6.05;;;;;;;;;;5037066;28;22127;-74
2022/09/16 01:13:52;;;;;;;10.05;6.80;;;;;;;;;;5026181;28;20041;-72
2022/09/16 01:16:29;;;;;;;5.10;4.70;;;;;;;;;;5026563;28;20060;-73
2022/09/16 01:18:57;;;;;;;6.32;5.47;;;;;;;;;;5028573;28;20401;-75
2022/09/16 01:21:30;;;;;;;6.53;6.03;;;;;;;;;;5025566;28;20080;-73
2022/09/16 01:24:02;;;;;;;5.93;5.30;;;;;;;;;;5025675;28;20057;-73
2022/09/16 01:26:39;;;;;;;7.22;6.53;;;;;;;;;;5024749;28;20456;-73
2022/09/16 01:29:25;;;;;;;9.20;6.88;;;;;;;;;;5023282;28;20060;-73
2022/09/16 01:31:52;;;;;;;11.15;7.53;;;;;;;;;;5025684;28;20471;-76
2022/09/16 01:34:28;;;;;;;6.97;6.38;;;;;;;;;;5042358;28;20046;-75
2022/09/16 01:37:02;;;;;;;8.93;7.53;;;;;;;;;;5026823;28;20428;-74
2022/09/16 01:39:29;;;;;;;9.30;6.78;;;;;;;;;;5025266;28;20048;-73
2022/09/16 01:41:59;;;;;;;8.57;7.75;;;;;;;;;;5022912;28;20041;-76
2022/09/16 01:44:26;;;;;;;9.43;7.70;;;;;;;;;;5037728;28;20501;-76
2022/09/16 01:46:59;;;;;;;9.25;8.10;;;;;;;;;;5026155;28;20172;-75
2022/09/16 01:49:56;;;;;;;8.50;7.15;;;;;;;;;;5027577;28;20049;-76
2022/09/16 01:52:42;;;;;;;14.80;7.97;;;;;;;;;;5015719;28;20045;-75
2022/09/16 01:55:15;;;;;;;9.50;8.60;;;;;;;;;;5018860;28;20409;-76
2022/09/16 01:57:42;;;;;;;9.70;8.70;;;;;;;;;;5025611;28;20037;-76
2022/09/16 02:00:12;;;;;;;9.95;8.95;;;;;;;;;;5023936;28;20072;-75
2022/09/16 02:02:44;;;;;;;10.88;7.95;;;;;;;;;;5051636;22;20045;-78
2022/09/16 02:05:14;;;;;;;9.40;8.50;;;;;;;;;;5030272;28;20087;-78
2022/09/16 02:07:50;;;;;;;10.15;8.10;;;;;;;;;;5048186;28;20037;-78
2022/09/16 02:10:22;;;;;;;9.63;7.75;;;;;;;;;;5049921;28;20460;-78
2022/09/16 02:12:49;;;;;;;;;;;;;;;;;;5048635;28;20045;-78
2022/09/16 02:15:21;;;;;;;13.50;8.48;;;;;;;;;;5048120;28;19921;-79
2022/09/16 02:17:54;;;;;;;8.43;7.68;;;;;;;;;;5048207;28;20041;-78
2022/09/16 02:20:25;;;;;;;8.40;7.57;;;;;;;;;;5048398;28;20064;-78
2022/09/16 02:23:03;;;;;;;9.27;8.35;;;;;;;;;;5047514;28;20468;-78
2022/09/16 02:25:32;;;;;;;12.82;8.75;;;;;;;;;;5046597;28;20049;-78
2022/09/16 02:28:01;;;;;;;9.68;8.27;;;;;;;;;;5048799;28;20134;-78
2022/09/16 02:30:29;;;;;;;11.68;9.32;;;;;;;;;;5048036;28;20498;-78
2022/09/16 02:32:58;;;;;;;11.90;8.88;;;;;;;;;;5047900;28;20037;-78
2022/09/16 02:35:27;;;;;;;10.75;9.63;;;;;;;;;;5046075;28;20353;-78
2022/09/16 02:37:59;;;;;;;14.48;10.10;;;;;;;;;;5046231;28;20510;-78
2022/09/16 02:40:26;;;;;;;;;;;;;;;;;;5049117;28;20040;-78
2022/09/16 02:42:53;;;;;;;16.08;10.20;;;;;;;;;;5047385;28;19967;-78
2022/09/16 02:45:23;;;;;;;15.98;9.95;;;;;;;;;;5047180;28;20045;-78
2022/09/16 02:47:53;;;;;;;14.90;10.25;;;;;;;;;;5048352;28;20045;-78
2022/09/16 02:50:24;;;;;;;13.20;10.50;;;;;;;;;;5049878;28;20122;-77
2022/09/16 02:52:56;;;;;;;16.98;9.90;;;;;;;;;;5046115;28;20048;-78
2022/09/16 02:55:36;;;;;;;13.05;10.52;;;;;;;;;;5030451;28;20072;-78
2022/09/16 02:58:05;;;;;;;20.42;11.32;;;;;;;;;;5046145;28;20044;-78
2022/09/16 03:01:00;;;;;;;14.35;11.07;;;;;;;;;;5048052;28;20036;-78
2022/09/16 03:03:31;;;;;;;17.65;10.75;;;;;;;;;;5045843;28;20072;-78
2022/09/16 03:06:12;;;;;;;15.25;10.50;;;;;;;;;;5046348;28;20127;-78
2022/09/16 03:08:40;;;;;;;15.30;10.93;;;;;;;;;;5048557;28;20064;-78
2022/09/16 03:11:14;;;;;;;16.35;11.43;;;;;;;;;;5049406;28;20135;-78
2022/09/16 03:13:46;;;;;;;13.18;10.35;;;;;;;;;;5049275;28;20052;-78
2022/09/16 03:16:18;;;;;;;12.48;9.65;;;;;;;;;;5047291;28;20411;-78
2022/09/16 03:18:57;;;;;;;10.73;9.60;;;;;;;;;;5050073;28;20052;-78
2022/09/16 03:21:29;;;;;;;13.90;11.20;;;;;;;;;;5046194;28;20033;-79
2022/09/16 03:24:05;;;;;;;16.00;10.20;;;;;;;;;;5048183;28;20049;-78
2022/09/16 03:26:36;;;;;;;10.40;8.93;;;;;;;;;;5047180;28;20040;-78
2022/09/16 03:29:11;;;;;;;12.60;9.82;;;;;;;;;;5048861;28;20180;-78
2022/09/16 03:31:43;;;;;;;11.70;9.85;;;;;;;;;;5043363;28;20036;-78
2022/09/16 03:34:16;;;;;;;12.30;10.00;;;;;;;;;;5027677;28;20541;-78
2022/09/16 03:36:46;;;;;;;10.80;9.07;;;;;;;;;;5044844;28;20475;-78
2022/09/16 03:39:13;;;;;;;11.30;9.95;;;;;;;;;;5046870;28;20118;-78
2022/09/16 03:41:42;;;;;;;12.80;9.98;;;;;;;;;;5044610;28;20040;-79
2022/09/16 03:44:09;;;;;;;11.52;9.80;;;;;;;;;;5046595;28;20049;-78
2022/09/16 03:46:37;;;;;;;14.43;10.68;;;;;;;;;;5046694;28;20140;-79
2022/09/16 03:49:04;;;;;;;14.68;10.70;;;;;;;;;;5026967;28;20190;-78
2022/09/16 03:51:31;;;;;;;12.68;10.02;;;;;;;;;;5046131;28;20128;-78
2022/09/16 03:53:58;;;;;;;11.82;10.25;;;;;;;;;;5046410;28;20044;-78
2022/09/16 03:56:26;;;;;;;13.65;9.73;;;;;;;;;;5046280;28;20040;-78
2022/09/16 03:58:53;;;;;;;15.02;10.80;;;;;;;;;;5044197;28;20163;-78
2022/09/16 04:01:20;;;;;;;10.75;9.57;;;;;;;;;;5042360;28;20144;-78
2022/09/16 04:03:48;;;;;;;9.85;8.80;;;;;;;;;;5045474;28;20045;-79
2022/09/16 04:06:15;;;;;;;13.82;8.05;;;;;;;;;;5047719;28;20057;-79
2022/09/16 04:08:43;;;;;;;10.35;8.30;;;;;;;;;;5049965;28;20041;-78
2022/09/16 04:11:11;;;;;;;15.93;9.00;;;;;;;;;;5046134;28;20491;-79
2022/09/16 04:13:38;;;;;;;9.98;8.35;;;;;;;;;;5048585;28;20076;-78
2022/09/16 04:16:05;;;;;;;9.23;8.32;;;;;;;;;;5044534;28;20131;-78
2022/09/16 04:18:33;;;;;;;9.05;8.15;;;;;;;;;;5032794;28;20337;-78
2022/09/16 04:21:01;;;;;;;11.73;10.50;;;;;;;;;;5048375;28;20589;-78
2022/09/16 04:23:30;;;;;;;11.15;9.68;;;;;;;;;;5048072;28;20041;-81
2022/09/16 04:25:58;;;;;;;13.27;11.50;;;;;;;;;;5046486;28;20123;-79
2022/09/16 04:28:25;;;;;;;15.35;10.60;;;;;;;;;;5055678;28;20065;-79
2022/09/16 04:30:53;;;;;;;11.68;8.90;;;;;;;;;;5046810;28;20037;-79
2022/09/16 04:33:21;;;;;;;11.32;9.68;;;;;;;;;;5047643;28;20072;-79
2022/09/16 04:35:48;;;;;;;10.55;8.45;;;;;;;;;;5047407;28;20255;-80
2022/09/16 04:38:15;;;;;;;9.35;8.25;;;;;;;;;;5048542;28;20098;-79
2022/09/16 04:40:43;;;;;;;8.25;7.38;;;;;;;;;;5047096;28;20037;-79
2022/09/16 04:43:10;;;;;;;9.25;7.65;;;;;;;;;;5049218;28;20053;-81
2022/09/16 04:45:37;;;;;;;14.40;10.80;;;;;;;;;;5046083;28;20194;-79
2022/09/16 04:48:04;;;;;;;14.77;9.65;;;;;;;;;;5049081;28;20051;-80
2022/09/16 04:50:31;;;;;;;15.30;10.20;;;;;;;;;;5029969;28;20045;-78
2022/09/16 04:52:59;;;;;;;12.75;9.43;;;;;;;;;;5046029;28;20072;-79
2022/09/16 04:55:31;;;;;;;10.38;8.48;;;;;;;;;;5043571;28;20135;-79
2022/09/16 04:57:59;;;;;;;9.68;8.68;;;;;;;;;;5048151;28;20052;-79
2022/09/16 05:00:27;;;;;;;11.63;8.88;;;;;;;;;;5058921;28;20100;-80
2022/09/16 05:02:54;;;;;;;13.68;9.20;;;;;;;;;;5049945;28;20051;-80
2022/09/16 05:05:21;;;;;;;11.95;8.10;;;;;;;;;;5048282;28;20045;-79
2022/09/16 05:07:48;;;;;;;9.65;8.65;;;;;;;;;;5045548;28;20044;-80
2022/09/16 05:10:16;;;;;;;10.13;8.75;;;;;;;;;;5048276;28;20439;-80
2022/09/16 05:12:43;;;;;;;10.32;8.73;;;;;;;;;;5046367;28;20044;-80
2022/09/16 05:15:16;;;;;;;10.60;8.63;;;;;;;;;;5046153;28;20491;-79
2022/09/16 05:17:44;;;;;;;15.50;10.63;;;;;;;;;;5047516;28;20128;-80
2022/09/16 05:20:18;;;;;;;13.27;10.82;;;;;;;;;;5046924;28;20560;-79
2022/09/16 05:22:45;;;;;;;12.15;8.88;;;;;;;;;;5045642;28;20061;-79
2022/09/16 05:25:12;;;;;;;11.23;9.43;;;;;;;;;;5049215;28;20376;-82
2022/09/16 05:27:39;;;;;;;12.05;10.32;;;;;;;;;;5049978;28;20052;-79
2022/09/16 05:30:07;;;;;;;13.40;10.27;;;;;;;;;;5045108;28;20098;-81
2022/09/16 05:32:34;;;;;;;16.10;11.88;;;;;;;;;;5049100;28;20154;-79
2022/09/16 05:35:01;;;;;;;14.23;10.65;;;;;;;;;;5048900;28;20128;-80
2022/09/16 05:37:29;;;;;;;15.65;12.07;;;;;;;;;;5044873;28;20041;-80
2022/09/16 05:39:56;;;;;;;14.20;12.10;;;;;;;;;;5049508;28;20037;-79
2022/09/16 05:42:24;;;;;;;15.20;11.05;;;;;;;;;;5052187;28;20048;-79
2022/09/16 05:44:51;;;;;;;14.65;10.48;;;;;;;;;;5047797;28;20087;-80
2022/09/16 05:47:18;;;;;;;14.02;11.07;;;;;;;;;;5052009;28;20076;-79
2022/09/16 05:49:46;;;;;;;21.27;15.07;;;;;;;;;;5047284;28;20473;-79
2022/09/16 05:52:13;;;;;;;12.70;10.30;;;;;;;;;;5050787;28;20108;-79
2022/09/16 05:54:40;;;;;;;11.73;9.52;;;;;;;;;;5049649;28;20601;-79
2022/09/16 05:57:07;;;;;;;11.43;9.38;;;;;;;;;;5043837;28;20104;-79
2022/09/16 05:59:38;;;;;;;10.88;9.40;;;;;;;;;;5047136;28;20417;-80
2022/09/16 06:02:05;;;;;;;12.10;8.93;;;;;;;;;;5044138;28;20144;-79
2022/09/16 06:04:33;;;;;;;10.38;8.73;;;;;;;;;;5034420;28;20045;-79
2022/09/16 06:07:01;;;;;;;10.15;9.02;;;;;;;;;;5039239;28;20125;-79
2022/09/16 06:09:29;;;;;;;12.35;9.15;;;;;;;;;;5044357;28;20059;-78
2022/09/16 06:11:56;;;;;;;10.80;9.07;;;;;;;;;;5043949;28;20110;-78
2022/09/16 06:14:28;;;;;;;10.57;9.10;;;;;;;;;;5044699;28;20551;-79
2022/09/16 06:16:56;;;;;;;9.90;8.88;;;;;;;;;;5050178;28;20684;-79
2022/09/16 06:19:23;;;;;;;10.40;8.88;;;;;;;;;;5048901;28;20506;-79
2022/09/16 06:21:50;;;;;;;10.90;9.48;;;;;;;;;;5050888;28;20040;-79
2022/09/16 06:24:19;;;;;;;13.65;9.98;;;;;;;;;;5046485;28;20045;-79
2022/09/16 06:26:46;;;;;;;10.98;9.77;;;;;;;;;;5046281;28;20109;-79
2022/09/16 06:29:15;;;;;;;12.73;10.95;;;;;;;;;;5047780;28;20044;-79
2022/09/16 06:31:44;;;;;;;10.68;9.60;;;;;;;;;;5041483;28;20045;-79
2022/09/16 06:34:13;;;;;;;11.77;10.57;;;;;;;;;;5044476;28;20041;-79
2022/09/16 06:36:43;;;;;;;9.65;8.73;;;;;;;;;;5055658;28;20060;-79
2022/09/16 06:39:12;;;;;;;14.73;10.95;;;;;;;;;;5046327;28;20033;-79
2022/09/16 06:41:40;;;;;;;12.30;10.35;;;;;;;;;;5050515;28;20430;-79
2022/09/16 06:44:07;;;;;;;10.40;9.27;;;;;;;;;;5051930;28;20037;-78
2022/09/16 06:46:34;;;;;;;11.43;10.23;;;;;;;;;;5049478;28;20048;-80
2022/09/16 06:49:02;;;;;;;13.73;10.18;;;;;;;;;;5049010;28;20148;-79
2022/09/16 06:51:35;;;;;;;12.00;10.45;;;;;;;;;;5036670;28;20533;-79
2022/09/16 06:54:04;;;;;;;13.90;10.95;;;;;;;;;;5049971;28;20063;-79
2022/09/16 06:56:37;;;;;;;11.20;10.10;;;;;;;;;;5047215;28;20095;-80
2022/09/16 06:59:05;;;;;;;13.82;10.35;;;;;;;;;;5035879;28;20060;-79
2022/09/16 07:01:32;;;;;;;12.35;10.88;;;;;;;;;;5053111;28;20045;-79
2022/09/16 07:04:04;;;;;;;13.23;11.73;;;;;;;;;;5046656;28;20084;-80
2022/09/16 07:06:32;;;;;;;16.27;12.57;;;;;;;;;;5050340;28;20037;-80
2022/09/16 07:09:19;;;;;;;14.85;11.52;;;;;;;;;;5042883;28;20502;-78
2022/09/16 07:11:46;;;;;;;13.32;11.93;;;;;;;;;;5048028;28;20112;-80
2022/09/16 07:14:13;;;;;;;18.02;13.02;;;;;;;;;;5047420;28;20155;-80
2022/09/16 07:16:41;;;;;;;15.38;12.77;;;;;;;;;;5044990;28;20124;-79
2022/09/16 07:19:09;;;;;;;14.75;13.20;;;;;;;;;;5045564;28;20045;-82
2022/09/16 07:21:36;;;;;;;16.45;13.13;;;;;;;;;;5044487;28;20034;-79
2022/09/16 07:24:03;;;;;;;12.75;11.23;;;;;;;;;;5046524;28;20090;-78
2022/09/16 07:26:32;;;;;;;13.23;11.30;;;;;;;;;;5044962;28;20080;-78
2022/09/16 07:29:00;;;;;;;13.38;10.30;;;;;;;;;;5044479;28;20052;-78
2022/09/16 07:31:29;;;;;;;11.60;9.52;;;;;;;;;;5044886;28;20086;-79
2022/09/16 07:33:57;;;;;;;12.25;11.05;;;;;;;;;;5044376;28;20106;-78
2022/09/16 07:36:32;;;;;;;13.73;12.43;;;;;;;;;;5041322;28;20136;-78
2022/09/16 07:39:00;;;;;;;15.50;12.05;;;;;;;;;;5026882;28;20045;-80
2022/09/16 07:41:28;;;;;;;15.68;12.07;;;;;;;;;;5048323;28;20068;-80
2022/09/16 07:43:57;;;;;;;11.93;10.82;;;;;;;;;;5042791;28;20136;-80
2022/09/16 07:46:27;;;;;;;9.90;9.07;;;;;;;;;;5048690;28;20116;-79
2022/09/16 07:48:55;;;;;;;13.20;11.90;;;;;;;;;;5048356;28;20068;-79
2022/09/16 07:51:24;;;;;;;13.98;12.13;;;;;;;;;;5041270;28;20049;-79
2022/09/16 07:53:58;;;;;;;15.05;12.57;;;;;;;;;;5049333;28;20064;-79
2022/09/16 07:56:27;;;;;;;17.25;11.07;;;;;;;;;;5045099;28;20573;-80
2022/09/16 07:58:55;;;;;;;12.07;10.93;;;;;;;;;;5043743;28;20056;-80
2022/09/16 08:01:24;;;;;;;14.63;10.43;;;;;;;;;;5045281;28;20120;-80
2022/09/16 08:03:51;;;;;;;12.43;11.13;;;;;;;;;;5057769;22;20045;-75
2022/09/16 08:06:23;;;;;;;11.95;10.85;;;;;;;;;;5031097;28;20136;-82
2022/09/16 08:08:50;;;;;;;;;;;;;;;;;;5011215;28;20419;-79
2022/09/16 08:11:17;;;;;;;14.27;11.75;;;;;;;;;;5008712;28;19925;-77
2022/09/16 08:13:45;;;;;;;13.32;11.75;;;;;;;;;;5005680;28;20105;-78
2022/09/16 08:16:14;;;;;;;11.77;9.48;;;;;;;;;;4997685;28;20041;-77
2022/09/16 08:18:41;;;;;;;10.93;9.85;;;;;;;;;;4987583;28;20061;-77
2022/09/16 08:21:10;;;;;;;12.80;10.82;;;;;;;;;;4990566;28;20042;-76
2022/09/16 08:23:38;;;;;;;12.18;10.93;;;;;;;;;;4989617;28;20084;-75
2022/09/16 08:26:07;;;;;;;12.25;10.98;;;;;;;;;;4988637;28;20045;-76
2022/09/16 08:28:34;;;;;;;10.90;9.65;;;;;;;;;;4988967;28;20380;-76
2022/09/16 08:31:21;;;;;;;13.27;11.02;;;;;;;;;;5019621;28;20120;-76
2022/09/16 08:33:49;;;;;;;10.50;9.60;;;;;;;;;;4999190;28;20129;-75
2022/09/16 08:36:20;;;;;;;12.88;10.38;;;;;;;;;;5023887;28;20392;-78
2022/09/16 08:38:49;;;;;;;14.75;11.57;;;;;;;;;;5002485;28;20439;-76
2022/09/16 08:41:22;;;;;;;11.73;9.80;;;;;;;;;;4987455;28;20491;-75
2022/09/16 08:43:55;;;;;;;12.68;9.75;;;;;;;;;;4985303;28;20538;-77
2022/09/16 08:46:35;;;;;;;11.05;9.77;;;;;;;;;;4999543;28;20050;-77
2022/09/16 08:49:25;;;;;;;10.65;9.65;;;;;;;;;;5003915;28;20052;-76
2022/09/16 08:51:53;;;;;;;13.32;10.95;;;;;;;;;;4973209;28;20568;-77
2022/09/16 08:54:27;;;;;;;10.57;9.57;;;;;;;;;;5013196;28;20120;-76
2022/09/16 08:56:57;;;;;;;10.45;9.45;;;;;;;;;;5026416;28;20103;-76
2022/09/16 08:59:27;;;;;;;11.05;10.05;;;;;;;;;;5014921;28;20034;-79
2022/09/16 09:02:02;;;;;;;11.10;10.00;;;;;;;;;;5018400;28;20115;-76
2022/09/16 09:04:35;;;;;;;11.73;8.70;;;;;;;;;;5004900;28;20049;-77
2022/09/16 09:07:22;;;;;;;11.68;9.32;;;;;;;;;;5019152;28;20467;-75
2022/09/16 09:09:52;;;;;;;9.45;8.50;;;;;;;;;;5019560;28;20041;-76
2022/09/16 09:12:33;;;;;;;9.25;8.45;;;;;;;;;;4992363;28;20050;-78
2022/09/16 09:15:02;;;;;;;12.18;8.70;;;;;;;;;;5005235;28;20037;-78
2022/09/16 09:17:49;;;;;;;8.95;8.05;;;;;;;;;;5003951;28;20065;-75
2022/09/16 09:20:35;;;;;;;14.15;8.10;;;;;;;;;;4998902;28;20061;-74
2022/09/16 09:23:11;;;;;;;10.70;9.60;;;;;;;;;;4995266;28;20088;-77
2022/09/16 09:25:42;;;;;;;26.77;23.90;;;;;;;;;;5014432;28;20625;-76
2022/09/16 09:28:20;;;;;;;10.70;8.57;;;;;;;;;;5000302;28;20054;-77
2022/09/16 09:31:06;;;;;;;9.40;6.68;;;;;;;;;;5014979;28;20053;-74
2022/09/16 09:33:49;;;;;;;6.82;6.13;;;;;;;;;;4988554;28;20466;-75
2022/09/16 09:36:19;;;;;;;6.32;5.93;;;;;;;;;;5008673;28;20136;-76
2022/09/16 09:38:46;;;;;;;7.82;6.03;;;;;;;;;;5018578;28;20517;-76
2022/09/16 09:41:16;;;;;;;6.50;5.55;;;;;;;;;;5021196;28;20033;-76
2022/09/16 09:43:51;;;;;;;6.13;5.25;;;;;;;;;;5020118;28;20099;-76
2022/09/16 09:46:34;;;;;;;5.20;4.80;;;;;;;;;;5008672;28;20091;-77
2022/09/16 09:49:09;;;;;;;6.30;4.80;;;;;;;;;;5010908;28;20053;-76
2022/09/16 09:51:40;;;;;;;5.22;4.72;;;;;;;;;;4999015;28;20511;-75
2022/09/16 09:54:28;;;;;;;5.63;4.45;;;;;;;;;;5000749;28;20128;-77
2022/09/16 09:57:08;;;;;;;6.70;4.60;;;;;;;;;;5002921;28;20045;-75
2022/09/16 09:59:40;;;;;;;5.13;4.00;;;;;;;;;;5013893;28;20042;-77
2022/09/16 10:02:13;;;;;;;4.78;3.92;;;;;;;;;;5001959;28;20580;-76
2022/09/16 10:04:41;;;;;;;5.75;4.15;;;;;;;;;;5023200;28;20072;-76
2022/09/16 10:07:09;;;;;;;3.90;3.58;;;;;;;;;;4999679;28;20042;-76
2022/09/16 10:09:44;;;;;;;3.95;3.58;;;;;;;;;;4996375;28;20407;-77
2022/09/16 10:12:12;;;;;;;4.32;3.33;;;;;;;;;;5011928;28;20061;-77
2022/09/16 10:14:40;;;;;;;4.75;3.63;;;;;;;;;;4991880;28;20077;-76
2022/09/16 10:17:18;;;;;;;6.50;3.85;;;;;;;;;;5013592;28;20033;-78
2022/09/16 10:19:53;;;;;;;4.80;3.80;;;;;;;;;;5025168;28;20133;-78
2022/09/16 10:22:24;;;;;;;6.13;3.60;;;;;;;;;;5023923;28;20037;-77
2022/09/16 10:25:15;;;;;;;5.65;3.72;;;;;;;;;;5003992;28;20038;-76
2022/09/16 10:27:42;;;;;;;3.83;3.40;;;;;;;;;;5016813;28;20053;-76
2022/09/16 10:30:09;;;;;;;3.08;2.78;;;;;;;;;;4986439;28;20257;-77
2022/09/16 10:32:44;;;;;;;3.60;3.30;;;;;;;;;;4993594;28;20048;-80
2022/09/16 10:35:35;;;;;;;3.47;3.15;;;;;;;;;;5011389;28;20037;-76
2022/09/16 10:38:08;;;;;;;3.65;3.30;;;;;;;;;;5009303;28;20046;-77
2022/09/16 10:40:36;;;;;;;4.10;3.53;;;;;;;;;;5011562;28;20040;-79
2022/09/16 10:43:04;;;;;;;3.53;3.22;;;;;;;;;;4999543;28;20132;-77
2022/09/16 10:45:36;;;;;;;4.47;3.63;;;;;;;;;;5018928;28;20458;-77
2022/09/16 10:48:07;;;;;;;6.65;3.88;;;;;;;;;;5010147;28;20128;-80
2022/09/16 10:50:34;;;;;;;3.80;3.50;;;;;;;;;;5021084;28;20096;-76
2022/09/16 10:53:01;;;;;;;3.92;3.60;;;;;;;;;;4998021;28;20539;-77
2022/09/16 10:55:34;;;;;;;3.47;3.17;;;;;;;;;;5013912;28;20054;-76
2022/09/16 10:58:17;;;;;;;5.47;3.22;;;;;;;;;;5010669;28;20236;-78
2022/09/16 11:01:13;;;;;;;3.70;3.45;;;;;;;;;;5014877;28;20034;-77
2022/09/16 11:03:45;;;;;;;2.88;2.67;;;;;;;;;;5009318;28;20038;-76
2022/09/16 11:06:12;;;;;;;4.40;3.13;;;;;;;;;;4987435;28;20069;-77
2022/09/16 11:08:45;;;;;;;3.85;2.85;;;;;;;;;;5004777;28;20136;-76
2022/09/16 11:11:13;;;;;;;4.15;2.53;;;;;;;;;;5002362;28;20038;-76
2022/09/16 11:13:49;;;;;;;2.78;2.17;;;;;;;;;;4997847;28;20052;-76
2022/09/16 11:16:20;;;;;;;3.95;2.80;;;;;;;;;;4968476;28;20531;-75
2022/09/16 11:19:09;;;;;;;2.97;2.70;;;;;;;;;;4997921;28;20049;-76
2022/09/16 11:21:39;;;;;;;2.58;2.45;;;;;;;;;;5003549;28;20045;-76
2022/09/16 11:24:25;;;;;;;3.35;2.63;;;;;;;;;;5008073;28;20077;-77
2022/09/16 11:27:11;;;;;;;5.03;3.42;;;;;;;;;;5016149;28;20037;-78
2022/09/16 11:30:01;;;;;;;3.25;2.90;;;;;;;;;;5013938;28;20042;-76
2022/09/16 11:32:37;;;;;;;4.63;3.05;;;;;;;;;;4994763;28;20049;-76
2022/09/16 11:35:16;;;;;;;4.32;2.40;;;;;;;;;;5017974;28;20038;-76
2022/09/16 11:38:04;;;;;;;3.90;2.65;;;;;;;;;;5000167;28;20041;-76
2022/09/16 11:40:45;;;;;;;4.03;2.53;;;;;;;;;;4999830;28;20037;-76
2022/09/16 11:43:31;;;;;;;4.88;2.20;;;;;;;;;;4981850;28;20123;-76
2022/09/16 11:46:25;;;;;;;2.38;2.13;;;;;;;;;;5004108;28;20117;-76
2022/09/16 11:49:12;;;;;;;2.53;2.17;;;;;;;;;;4980114;28;20065;-76
2022/09/16 11:51:48;;;;;;;3.05;2.60;;;;;;;;;;5001528;28;20096;-77
2022/09/16 11:54:44;;;;;;;2.88;2.00;;;;;;;;;;5001260;28;20050;-76
2022/09/16 11:57:20;;;;;;;3.60;2.15;;;;;;;;;;5004586;28;20431;-75
2022/09/16 11:59:54;;;;;;;5.10;2.38;;;;;;;;;;5005693;28;20073;-75
2022/09/16 12:02:28;;;;;;;4.15;1.92;;;;;;;;;;4997994;28;20065;-76
2022/09/16 12:05:13;;;;;;;1.75;1.60;;;;;;;;;;5000102;28;20519;-76
2022/09/16 12:07:41;;;;;;;3.72;2.00;;;;;;;;;;4985478;28;20463;-77
2022/09/16 12:10:17;;;;;;;4.22;1.80;;;;;;;;;;5004787;28;20072;-75
2022/09/16 12:12:51;;;;;;;1.95;1.80;;;;;;;;;;4997676;28;20137;-76
2022/09/16 12:15:25;;;;;;;2.65;1.92;;;;;;;;;;5020623;28;20091;-77
2022/09/16 12:17:57;;;;;;;1.77;1.50;;;;;;;;;;5008114;28;20080;-77
2022/09/16 12:20:29;;;;;;;3.97;1.70;;;;;;;;;;4994844;28;20045;-77
2022/09/16 12:23:17;;;;;;;3.60;1.95;;;;;;;;;;4982566;28;20052;-77
2022/09/16 12:25:45;;;;;;;5.82;1.80;;;;;;;;;;5014513;28;20041;-77
2022/09/16 12:28:39;;;;;;;1.85;1.60;;;;;;;;;;5018605;28;20131;-78
2022/09/16 12:31:12;;;;;;;3.33;1.90;;;;;;;;;;5015241;28;20073;-76
2022/09/16 12:33:44;;;;;;;2.35;1.52;;;;;;;;;;4998803;28;20045;-76
2022/09/16 12:36:13;;;;;;;1.83;1.60;;;;;;;;;;5027388;28;20187;-76
2022/09/16 12:38:41;;;;;;;2.10;1.70;;;;;;;;;;4997739;28;20483;-76
2022/09/16 12:41:12;;;;;;;2.20;2.00;;;;;;;;;;5020822;28;20034;-77
2022/09/16 12:43:39;;;;;;;2.75;1.80;;;;;;;;;;5024728;28;20468;-78
2022/09/16 12:46:30;;;;;;;4.78;2.08;;;;;;;;;;5014751;28;20069;-75
2022/09/16 12:49:11;;;;;;;3.53;2.00;;;;;;;;;;5005652;28;20419;-87
2022/09/16 12:51:52;;;;;;;2.73;2.17;;;;;;;;;;5026264;28;20053;-76
2022/09/16 12:54:31;;;;;;;2.65;2.30;;;;;;;;;;4996246;28;20061;-78
2022/09/16 12:57:33;;;;;;;4.25;2.45;;;;;;;;;;5001726;28;20458;-77
2022/09/16 13:00:07;;;;;;;3.42;3.10;;;;;;;;;;5011888;28;20049;-76
2022/09/16 13:02:39;;;;;;;4.63;2.67;;;;;;;;;;5008260;28;20136;-77
2022/09/16 13:05:19;;;;;;;2.88;2.38;;;;;;;;;;5018549;28;20044;-77
2022/09/16 13:07:52;;;;;;;3.65;2.90;;;;;;;;;;4967659;28;20069;-76
2022/09/16 13:10:21;;;;;;;4.32;3.28;;;;;;;;;;5024246;28;20076;-77
2022/09/16 13:13:17;;;;;;;3.50;2.78;;;;;;;;;;5005156;28;20038;-75
2022/09/16 13:15:54;;;;;;;2.95;2.50;;;;;;;;;;5005201;28;20111;-77
2022/09/16 13:18:25;;;;;;;3.75;2.92;;;;;;;;;;5006241;28;20620;-75
2022/09/16 13:20:57;;;;;;;3.85;2.78;;;;;;;;;;4989586;28;20037;-76
2022/09/16 13:23:27;;;;;;;3.38;2.70;;;;;;;;;;5006233;28;20034;-77
2022/09/16 13:26:00;;;;;;;4.57;2.90;;;;;;;;;;5012574;28;20559;-76
2022/09/16 13:28:37;;;;;;;4.45;2.30;;;;;;;;;;4994899;28;20411;-77
2022/09/16 13:31:10;;;;;;;5.50;2.80;;;;;;;;;;5005785;28;20054;-77
2022/09/16 13:33:42;;;;;;;3.40;1.90;;;;;;;;;;4991318;28;20050;-77
2022/09/16 13:36:19;;;;;;;4.35;2.00;;;;;;;;;;5016550;28;20077;-76
2022/09/16 13:38:53;;;;;;;2.90;2.00;;;;;;;;;;5019599;28;20080;-77
2022/09/16 13:41:34;;;;;;;2.80;2.10;;;;;;;;;;5007671;28;20431;-76
2022/09/16 13:44:03;;;;;;;3.83;2.17;;;;;;;;;;5005722;28;20515;-76
2022/09/16 13:46:35;;;;;;;3.78;2.30;;;;;;;;;;5001482;28;20046;-77
2022/09/16 13:49:03;;;;;;;4.82;2.30;;;;;;;;;;5010595;28;20431;-76
2022/09/16 13:51:32;;;;;;;5.28;3.20;;;;;;;;;;5007422;28;20041;-75
2022/09/16 13:54:03;;;;;;;5.03;3.22;;;;;;;;;;5000975;28;20048;-76
2022/09/16 13:56:30;;;;;;;6.95;3.40;;;;;;;;;;5006996;28;20092;-76
2022/09/16 13:59:16;;;;;;;4.65;3.00;;;;;;;;;;4984651;28;20045;-77
2022/09/16 14:02:00;;;;;;;4.97;3.47;;;;;;;;;;5002794;28;20095;-76
2022/09/16 14:04:45;;;;;;;3.75;3.38;;;;;;;;;;5037657;23;20107;-68
2022/09/16 14:07:24;;;;;;;8.05;4.50;;;;;;;;;;5021734;28;20128;-70
2022/09/16 14:09:52;;;;;;;6.05;3.67;;;;;;;;;;5023895;28;20048;-68
2022/09/16 14:12:37;;;;;;;8.80;4.32;;;;;;;;;;5027959;28;20061;-69
2022/09/16 14:15:05;;;;;;;4.55;4.15;;;;;;;;;;5026748;28;20075;-68
2022/09/16 14:17:38;;;;;;;5.43;4.05;;;;;;;;;;5014555;28;20388;-68
2022/09/16 14:20:09;;;;;;;5.40;3.45;;;;;;;;;;5017746;28;20030;-67
2022/09/16 14:22:37;;;;;;;3.60;2.70;;;;;;;;;;5014241;28;20033;-70
2022/09/16 14:25:24;;;;;;;4.55;2.88;;;;;;;;;;5018050;28;20049;-68
2022/09/16 14:28:16;;;;;;;3.42;2.50;;;;;;;;;;5014130;28;20034;-70
2022/09/16 14:30:47;;;;;;;4.68;3.30;;;;;;;;;;5015981;28;20052;-68
2022/09/16 14:33:15;;;;;;;4.03;3.00;;;;;;;;;;5020266;28;20077;-68
2022/09/16 14:35:45;;;;;;;3.10;2.85;;;;;;;;;;5011663;28;20054;-69
2022/09/16 14:38:15;;;;;;;5.10;3.03;;;;;;;;;;5002871;28;20103;-68
2022/09/16 14:41:06;;;;;;;4.07;2.75;;;;;;;;;;5008062;28;20043;-68
2022/09/16 14:43:33;;;;;;;5.15;3.50;;;;;;;;;;5010008;28;20553;-68
2022/09/16 14:46:01;;;;;;;4.05;3.00;;;;;;;;;;5017421;28;20587;-70
2022/09/16 14:48:30;;;;;;;4.45;3.28;;;;;;;;;;5016962;28;20046;-69
2022/09/16 14:50:57;;;;;;;3.45;2.75;;;;;;;;;;5010227;28;20037;-69
2022/09/16 14:53:29;;;;;;;3.40;3.10;;;;;;;;;;5020979;28;20049;-69
2022/09/16 14:56:03;;;;;;;10.45;3.92;;;;;;;;;;5019788;28;20049;-69
2022/09/16 14:58:31;;;;;;;4.57;3.78;;;;;;;;;;5010993;28;20119;-67
2022/09/16 15:01:05;;;;;;;4.78;3.65;;;;;;;;;;5017075;28;20044;-68
2022/09/16 15:03:52;;;;;;;5.80;4.25;;;;;;;;;;5013668;28;20042;-69
2022/09/16 15:06:21;;;;;;;4.28;3.40;;;;;;;;;;5018855;28;20045;-69